Time;durP1;ratioP1;P1;durP2;ratioP2;P2;SDS_P1;SDS_P2;PMS_P1;PMS_P2;Temp;Humidity;BMP_temperature;BMP_pressure;BME280_temperature;BME280_humidity;BME280_pressure;Samples;Min_cycle;Max_cycle;Signal;HPM_P1;HPM_P2
2021/12/11 00:01:57;;;;;;;4.03;3.58;;;5.20;74.30;;;;;;5133494;27;20022;-74
2021/12/11 00:04:31;;;;;;;4.15;3.75;;;5.20;74.40;;;;;;5131006;27;20023;-74
2021/12/11 00:06:58;;;;;;;5.55;3.65;;;5.30;74.40;;;;;;5115532;27;20084;-74
2021/12/11 00:09:26;;;;;;;3.63;3.30;;;5.30;74.30;;;;;;5134077;27;20031;-74
2021/12/11 00:11:59;;;;;;;5.45;3.08;;;5.30;74.30;;;;;;5133313;27;20106;-74
2021/12/11 00:14:28;;;;;;;4.10;3.40;;;5.30;74.30;;;;;;5115976;27;20027;-74
2021/12/11 00:16:54;;;;;;;4.43;3.38;;;5.30;74.30;;;;;;5114152;27;20075;-74
2021/12/11 00:19:25;;;;;;;7.05;2.90;;;5.30;74.20;;;;;;5124139;27;20099;-74
2021/12/11 00:21:51;;;;;;;3.13;2.70;;;5.30;74.10;;;;;;5114834;27;20023;-74
2021/12/11 00:24:26;;;;;;;3.90;2.85;;;5.30;74.20;;;;;;5134495;27;20059;-74
2021/12/11 00:26:56;;;;;;;;;;;5.30;74.10;;;;;;5132345;27;20026;-74
2021/12/11 00:29:26;;;;;;;5.82;2.97;;;5.30;74.30;;;;;;5130867;27;20052;-74
2021/12/11 00:31:58;;;;;;;4.18;2.95;;;5.30;73.80;;;;;;5115064;27;20054;-74
2021/12/11 00:34:24;;;;;;;5.03;3.08;;;5.30;73.90;;;;;;5114176;27;20075;-74
2021/12/11 00:36:56;;;;;;;6.28;3.50;;;5.30;74.00;;;;;;5134195;27;20385;-74
2021/12/11 00:39:23;;;;;;;4.10;2.92;;;5.30;74.10;;;;;;5132746;27;20387;-74
2021/12/11 00:41:55;;;;;;;3.53;2.85;;;5.30;74.10;;;;;;5115435;27;20454;-74
2021/12/11 00:44:41;;;;;;;4.57;3.10;;;5.30;74.10;;;;;;5122082;27;20114;-74
2021/12/11 00:47:07;;;;;;;3.72;2.65;;;5.30;74.40;;;;;;5134063;27;20023;-74
2021/12/11 00:49:33;;;;;;;3.47;2.67;;;5.30;74.20;;;;;;5131899;27;20391;-74
2021/12/11 00:52:00;;;;;;;5.40;3.20;;;5.30;74.20;;;;;;5115550;27;20034;-74
2021/12/11 00:54:25;;;;;;;4.18;2.45;;;5.30;74.30;;;;;;5133201;27;20047;-74
2021/12/11 00:56:51;;;;;;;3.13;2.70;;;5.30;74.20;;;;;;5133331;27;20054;-73
2021/12/11 00:59:20;;;;;;;3.30;2.60;;;5.30;74.30;;;;;;5132248;27;20028;-73
2021/12/11 01:01:54;;;;;;;4.15;3.08;;;5.30;74.20;;;;;;5119089;27;20031;-73
2021/12/11 01:04:27;;;;;;;2.33;1.97;;;5.30;74.30;;;;;;5133075;27;20027;-73
2021/12/11 01:07:15;;;;;;;3.60;2.67;;;5.30;74.30;;;;;;5131254;27;20333;-73
2021/12/11 01:09:49;;;;;;;3.47;2.63;;;5.30;74.20;;;;;;5095214;28;20031;-73
2021/12/11 01:12:26;;;;;;;4.57;2.65;;;5.30;74.30;;;;;;5131889;27;20076;-74
2021/12/11 01:15:07;;;;;;;2.78;2.28;;;5.30;74.30;;;;;;5133371;27;20501;-74
2021/12/11 01:17:42;;;;;;;3.78;2.38;;;5.30;74.20;;;;;;5132280;27;20031;-73
2021/12/11 01:20:34;;;;;;;5.50;2.92;;;5.30;74.20;;;;;;5115571;28;20037;-73
2021/12/11 01:23:01;;;;;;;3.65;2.78;;;5.30;74.50;;;;;;5109911;28;20505;-73
2021/12/11 01:25:28;;;;;;;9.93;2.45;;;5.30;74.30;;;;;;5117337;28;20028;-73
2021/12/11 01:27:58;;;;;;;4.93;3.17;;;5.50;74.30;;;;;;5131514;28;20122;-72
2021/12/11 01:30:36;;;;;;;5.10;2.70;;;5.30;74.30;;;;;;5115529;28;20066;-74
2021/12/11 01:33:04;;;;;;;3.92;2.55;;;5.30;74.40;;;;;;5130881;28;20031;-73
2021/12/11 01:35:30;;;;;;;6.07;3.20;;;5.20;74.40;;;;;;5112990;28;20483;-74
2021/12/11 01:38:22;;;;;;;5.03;3.05;;;5.20;74.40;;;;;;5130867;27;20039;-73
2021/12/11 01:40:53;;;;;;;5.10;3.20;;;5.20;74.90;;;;;;5119499;27;20027;-74
2021/12/11 01:43:23;;;;;;;6.78;3.42;;;5.20;74.60;;;;;;5136716;27;20434;-73
2021/12/11 01:45:51;;;;;;;5.63;3.08;;;5.30;74.70;;;;;;5115785;28;20391;-73
2021/12/11 01:48:20;;;;;;;4.97;3.13;;;5.20;74.50;;;;;;5128756;27;20027;-72
2021/12/11 01:50:52;;;;;;;6.00;2.72;;;5.20;74.60;;;;;;5119221;27;20016;-72
2021/12/11 01:53:24;;;;;;;4.82;2.75;;;5.20;74.70;;;;;;5135382;27;20459;-72
2021/12/11 01:55:58;;;;;;;4.93;3.08;;;5.20;74.60;;;;;;5131184;27;20386;-72
2021/12/11 01:58:46;;;;;;;5.50;2.83;;;5.20;74.70;;;;;;5135184;27;20054;-72
2021/12/11 02:01:17;;;;;;;3.45;2.42;;;5.20;74.60;;;;;;5132659;27;20059;-72
2021/12/11 02:03:43;;;;;;;3.35;2.35;;;5.20;74.40;;;;;;5118830;27;20032;-72
2021/12/11 02:06:11;;;;;;;6.63;2.70;;;5.20;74.50;;;;;;5122556;27;20027;-72
2021/12/11 02:08:39;;;;;;;4.05;2.88;;;5.20;74.60;;;;;;5137163;27;20239;-71
2021/12/11 02:11:11;;;;;;;8.00;2.70;;;5.20;74.40;;;;;;5130651;27;20486;-72
2021/12/11 02:13:46;;;;;;;2.55;2.30;;;5.20;74.60;;;;;;5136289;27;20727;-72
2021/12/11 02:16:29;;;;;;;3.95;2.33;;;5.20;74.60;;;;;;5103880;27;20026;-71
2021/12/11 02:18:59;;;;;;;3.05;2.42;;;5.20;74.80;;;;;;5132154;27;20059;-71
2021/12/11 02:21:36;;;;;;;2.72;2.20;;;5.30;74.70;;;;;;5122228;27;20050;-70
2021/12/11 02:24:07;;;;;;;3.63;2.30;;;5.20;74.60;;;;;;5133788;27;20412;-70
2021/12/11 02:26:35;;;;;;;4.43;2.25;;;5.20;74.60;;;;;;5135140;27;20056;-71
2021/12/11 02:29:23;;;;;;;4.13;2.30;;;5.20;74.70;;;;;;5136599;27;20050;-71
2021/12/11 02:32:30;;;;;;;3.58;2.63;;;5.20;74.80;;;;;;5125309;27;20030;-70
2021/12/11 02:35:11;;;;;;;4.75;2.50;;;5.10;74.70;;;;;;5093939;27;20039;-71
2021/12/11 02:37:48;;;;;;;4.95;2.17;;;5.10;74.60;;;;;;5116829;27;20031;-70
2021/12/11 02:40:31;;;;;;;4.53;2.42;;;5.10;74.40;;;;;;5116813;27;20023;-70
2021/12/11 02:43:09;;;;;;;2.38;2.17;;;5.10;74.60;;;;;;5132912;27;20415;-70
2021/12/11 02:45:56;;;;;;;4.50;2.30;;;5.10;74.50;;;;;;5135774;27;20420;-70
2021/12/11 02:48:32;;;;;;;2.60;2.20;;;5.10;74.70;;;;;;5135401;27;20370;-70
2021/12/11 02:51:19;;;;;;;4.93;2.20;;;5.10;74.70;;;;;;5131545;27;20037;-70
2021/12/11 02:53:59;;;;;;;4.63;2.10;;;5.10;74.80;;;;;;5135575;27;20033;-70
2021/12/11 02:56:33;;;;;;;2.58;2.00;;;5.10;74.80;;;;;;5135133;27;20380;-70
2021/12/11 02:59:04;;;;;;;2.00;1.80;;;5.10;74.80;;;;;;5133868;27;20039;-70
2021/12/11 03:01:34;;;;;;;3.78;2.05;;;5.10;74.80;;;;;;5117507;27;20379;-69
2021/12/11 03:04:29;;;;;;;4.40;2.28;;;5.10;74.90;;;;;;5142294;27;20023;-70
2021/12/11 03:06:55;;;;;;;2.85;2.17;;;5.10;75.10;;;;;;5133545;27;20355;-70
2021/12/11 03:09:25;;;;;;;2.78;2.22;;;5.10;74.80;;;;;;5115499;27;20028;-70
2021/12/11 03:11:54;;;;;;;2.50;1.90;;;5.10;74.80;;;;;;5134604;27;20031;-70
2021/12/11 03:14:22;;;;;;;2.20;2.00;;;5.10;74.70;;;;;;5135020;27;20023;-70
2021/12/11 03:16:50;;;;;;;4.25;2.17;;;5.10;74.70;;;;;;5116755;27;20023;-70
2021/12/11 03:19:18;;;;;;;2.35;2.15;;;5.10;74.70;;;;;;5134687;27;20023;-70
2021/12/11 03:21:45;;;;;;;2.58;2.38;;;5.10;74.70;;;;;;5135287;27;20028;-71
2021/12/11 03:24:12;;;;;;;3.80;2.10;;;5.20;74.80;;;;;;5114362;27;20031;-70
2021/12/11 03:26:39;;;;;;;2.28;2.08;;;5.20;74.80;;;;;;5117091;27;20027;-71
2021/12/11 03:29:07;;;;;;;1.98;1.88;;;5.20;74.80;;;;;;5134967;27;20403;-71
2021/12/11 03:31:36;;;;;;;3.28;2.03;;;5.20;74.70;;;;;;5116979;27;20027;-71
2021/12/11 03:34:04;;;;;;;2.35;2.13;;;5.20;74.60;;;;;;5134878;27;20011;-71
2021/12/11 03:36:32;;;;;;;2.72;2.30;;;5.20;74.60;;;;;;5116358;27;20026;-71
2021/12/11 03:39:13;;;;;;;2.78;2.33;;;5.20;74.60;;;;;;5134709;27;20417;-71
2021/12/11 03:41:41;;;;;;;4.40;2.13;;;5.20;74.60;;;;;;5134803;27;20383;-71
2021/12/11 03:44:08;;;;;;;4.15;2.42;;;5.20;74.60;;;;;;5134718;27;20034;-71
2021/12/11 03:46:34;;;;;;;5.45;2.80;;;5.20;74.60;;;;;;5115868;27;20049;-71
2021/12/11 03:49:05;;;;;;;3.80;2.53;;;5.20;74.70;;;;;;5134997;27;20026;-71
2021/12/11 03:51:34;;;;;;;4.75;2.90;;;5.20;74.60;;;;;;5133293;27;20076;-71
2021/12/11 03:54:03;;;;;;;3.95;2.85;;;5.10;74.60;;;;;;5125862;27;20353;-71
2021/12/11 03:56:29;;;;;;;3.17;2.80;;;5.10;74.60;;;;;;5131224;27;20039;-71
2021/12/11 03:58:55;;;;;;;3.90;3.05;;;5.10;74.50;;;;;;5116690;27;20035;-71
2021/12/11 04:01:30;;;;;;;2.92;2.30;;;5.10;74.60;;;;;;5132314;27;20019;-70
2021/12/11 04:04:04;;;;;;;2.30;2.10;;;5.10;74.70;;;;;;5125322;27;20091;-71
2021/12/11 04:06:31;;;;;;;2.83;1.90;;;5.10;74.70;;;;;;5129116;27;20015;-71
2021/12/11 04:08:58;;;;;;;3.45;2.40;;;5.10;74.70;;;;;;5133988;27;20368;-71
2021/12/11 04:11:29;;;;;;;2.33;2.03;;;5.10;74.70;;;;;;5130667;27;20031;-71
2021/12/11 04:14:05;;;;;;;1.30;1.20;;;5.10;74.80;;;;;;5132094;27;20019;-71
2021/12/11 04:16:32;;;;;;;1.40;1.30;;;5.10;74.70;;;;;;5133482;27;20513;-71
2021/12/11 04:18:58;;;;;;;1.30;1.20;;;5.10;74.70;;;;;;5133386;27;20436;-71
2021/12/11 04:21:24;;;;;;;1.10;1.10;;;5.10;75.40;;;;;;5120895;27;20023;-71
2021/12/11 04:23:51;;;;;;;1.00;1.00;;;5.10;74.80;;;;;;5133037;27;20067;-71
2021/12/11 04:26:17;;;;;;;1.15;1.02;;;5.10;74.70;;;;;;5108107;27;20031;-70
2021/12/11 04:28:46;;;;;;;1.02;1.00;;;5.20;74.70;;;;;;5133240;27;20043;-71
2021/12/11 04:31:17;;;;;;;0.90;0.90;;;5.20;74.70;;;;;;5132052;27;20019;-71
2021/12/11 04:33:47;;;;;;;0.95;0.90;;;5.20;74.70;;;;;;5134532;27;20023;-71
2021/12/11 04:36:21;;;;;;;0.90;0.90;;;5.20;74.60;;;;;;5133286;27;20051;-71
2021/12/11 04:38:49;;;;;;;0.85;0.85;;;5.20;74.60;;;;;;5133578;27;20039;-71
2021/12/11 04:41:21;;;;;;;1.02;1.02;;;5.20;74.60;;;;;;5133182;27;20374;-71
2021/12/11 04:43:48;;;;;;;1.00;1.00;;;5.20;74.60;;;;;;5133239;27;20497;-71
2021/12/11 04:46:14;;;;;;;1.00;1.00;;;5.20;74.50;;;;;;5133936;27;20106;-71
2021/12/11 04:48:55;;;;;;;1.00;1.00;;;5.20;74.50;;;;;;5133572;27;20390;-71
2021/12/11 04:51:33;;;;;;;0.80;0.80;;;5.20;74.40;;;;;;5133652;27;20027;-71
2021/12/11 05:04:56;;;;;;;1.92;1.02;;;5.20;74.60;;;;;;5104716;27;19907;-71
2021/12/11 05:07:32;;;;;;;1.00;1.00;;;5.10;74.10;;;;;;5116896;27;20123;-71
2021/12/11 05:10:27;;;;;;;1.10;1.00;;;5.10;74.10;;;;;;5126586;27;20032;-71
2021/12/11 05:12:57;;;;;;;1.00;1.00;;;5.10;74.30;;;;;;5125587;27;20027;-70
2021/12/11 05:15:30;;;;;;;0.93;0.93;;;5.10;74.30;;;;;;5132706;27;20027;-71
2021/12/11 05:17:57;;;;;;;1.05;1.05;;;5.20;74.40;;;;;;5132551;27;20542;-72
2021/12/11 05:20:28;;;;;;;1.20;1.20;;;5.10;74.50;;;;;;5112813;28;20097;-71
2021/12/11 05:22:53;;;;;;;1.17;1.08;;;5.10;74.50;;;;;;5116107;28;20046;-71
2021/12/11 05:25:19;;;;;;;1.10;1.10;;;5.10;74.40;;;;;;5104946;28;20027;-71
2021/12/11 05:27:45;;;;;;;1.20;1.20;;;5.20;74.40;;;;;;5130822;27;20410;-71
2021/12/11 05:30:17;;;;;;;1.20;1.10;;;5.10;74.30;;;;;;5113675;28;20066;-71
2021/12/11 05:32:43;;;;;;;1.20;1.10;;;5.10;74.30;;;;;;5113867;28;20023;-70
2021/12/11 05:35:11;;;;;;;1.38;1.27;;;5.10;74.30;;;;;;5132958;28;20080;-71
2021/12/11 05:37:37;;;;;;;1.20;1.20;;;5.10;74.30;;;;;;5133317;27;20566;-71
2021/12/11 05:40:06;;;;;;;1.40;1.30;;;5.10;74.30;;;;;;5132479;28;20025;-71
2021/12/11 05:42:32;;;;;;;1.40;1.30;;;5.10;74.30;;;;;;5132987;28;20031;-71
2021/12/11 05:44:58;;;;;;;2.05;1.13;;;5.20;74.30;;;;;;5112376;28;20023;-71
2021/12/11 05:47:24;;;;;;;1.25;1.23;;;5.10;74.20;;;;;;5132576;28;20032;-71
2021/12/11 05:49:50;;;;;;;1.20;1.20;;;5.20;74.20;;;;;;5113943;27;20023;-71
2021/12/11 05:52:16;;;;;;;1.00;1.00;;;5.10;74.20;;;;;;5115255;28;20470;-71
2021/12/11 05:54:45;;;;;;;1.50;1.40;;;5.10;74.00;;;;;;5113590;28;20051;-71
2021/12/11 05:57:15;;;;;;;1.40;1.30;;;5.10;74.10;;;;;;5133155;27;20650;-72
2021/12/11 05:59:43;;;;;;;1.20;1.20;;;5.10;73.90;;;;;;5132354;27;20038;-71
2021/12/11 06:02:17;;;;;;;1.40;1.30;;;5.10;73.90;;;;;;5113076;28;20031;-70
2021/12/11 06:04:45;;;;;;;1.40;1.30;;;5.10;73.90;;;;;;5143546;27;20030;-71
2021/12/11 06:07:13;;;;;;;1.52;1.42;;;5.10;73.90;;;;;;5131748;28;20042;-71
2021/12/11 06:09:42;;;;;;;1.30;1.20;;;5.00;73.60;;;;;;5125409;28;20031;-71
2021/12/11 06:12:11;;;;;;;1.50;1.40;;;5.10;73.70;;;;;;5132790;28;20455;-70
2021/12/11 06:14:39;;;;;;;1.75;1.35;;;5.00;73.70;;;;;;5114866;28;20027;-70
2021/12/11 06:17:06;;;;;;;1.27;1.27;;;5.00;73.80;;;;;;5119896;27;20046;-71
2021/12/11 06:19:33;;;;;;;1.67;1.58;;;5.00;73.80;;;;;;5131042;28;20054;-70
2021/12/11 06:21:59;;;;;;;1.50;1.40;;;4.90;73.80;;;;;;5114598;28;20115;-71
2021/12/11 06:24:28;;;;;;;1.50;1.40;;;5.00;73.80;;;;;;5132207;27;20077;-71
2021/12/11 06:26:56;;;;;;;1.55;1.45;;;4.90;73.90;;;;;;5118692;27;20536;-71
2021/12/11 06:29:22;;;;;;;1.50;1.40;;;4.90;73.90;;;;;;5126863;27;20027;-71
2021/12/11 06:31:50;;;;;;;1.50;1.40;;;4.90;73.90;;;;;;5119167;27;20035;-71
2021/12/11 06:34:16;;;;;;;1.80;1.70;;;4.90;73.90;;;;;;5117123;27;20046;-71
2021/12/11 06:36:47;;;;;;;1.55;1.45;;;4.90;73.90;;;;;;5121712;27;20027;-71
2021/12/11 06:39:17;;;;;;;2.08;1.90;;;4.90;73.80;;;;;;5135338;27;20030;-71
2021/12/11 06:41:45;;;;;;;1.90;1.80;;;4.90;73.80;;;;;;5135973;27;20023;-71
2021/12/11 06:44:11;;;;;;;2.05;1.90;;;4.80;73.70;;;;;;5116178;27;20031;-71
2021/12/11 06:46:39;;;;;;;1.70;1.60;;;4.80;73.60;;;;;;5118050;27;20112;-71
2021/12/11 06:49:05;;;;;;;2.35;1.90;;;4.80;73.70;;;;;;5134185;27;20034;-71
2021/12/11 06:51:32;;;;;;;2.10;2.00;;;4.80;73.70;;;;;;5135727;27;20047;-71
2021/12/11 06:54:03;;;;;;;2.20;2.00;;;4.80;73.90;;;;;;5135218;27;20027;-71
2021/12/11 06:56:29;;;;;;;2.42;2.22;;;4.70;73.90;;;;;;5136385;27;20035;-71
2021/12/11 06:58:56;;;;;;;2.75;2.38;;;4.70;74.00;;;;;;5133927;27;20041;-71
2021/12/11 07:01:24;;;;;;;2.30;2.15;;;4.70;73.90;;;;;;5124937;27;20020;-71
2021/12/11 07:03:50;;;;;;;2.17;1.98;;;4.70;74.10;;;;;;5116397;27;20428;-71
2021/12/11 07:06:16;;;;;;;2.70;2.50;;;4.70;74.00;;;;;;5136089;27;20076;-71
2021/12/11 07:08:43;;;;;;;2.47;2.28;;;4.70;73.90;;;;;;5116674;27;20019;-71
2021/12/11 07:11:11;;;;;;;2.80;2.33;;;4.60;74.10;;;;;;5134208;27;20023;-70
2021/12/11 07:13:38;;;;;;;2.83;2.53;;;4.60;74.10;;;;;;5116760;27;20035;-71
2021/12/11 07:16:04;;;;;;;2.60;2.35;;;4.70;74.40;;;;;;5116400;27;20055;-71
2021/12/11 07:18:31;;;;;;;2.42;2.22;;;4.60;74.50;;;;;;5134882;27;20084;-71
2021/12/11 07:20:57;;;;;;;2.55;2.35;;;4.70;74.70;;;;;;5135322;27;20035;-71
2021/12/11 07:23:23;;;;;;;2.28;2.08;;;4.70;74.60;;;;;;5116395;27;20035;-71
2021/12/11 07:25:52;;;;;;;3.05;2.53;;;4.70;74.70;;;;;;5135566;27;20051;-71
2021/12/11 07:28:20;;;;;;;2.17;1.98;;;4.70;74.70;;;;;;5133168;27;20050;-71
2021/12/11 07:30:48;;;;;;;3.17;2.70;;;4.80;74.70;;;;;;5134780;27;20344;-71
2021/12/11 07:33:16;;;;;;;3.30;2.75;;;4.80;74.50;;;;;;5134642;27;20038;-71
2021/12/11 07:35:43;;;;;;;4.45;3.50;;;4.80;74.40;;;;;;5135608;27;20076;-72
2021/12/11 07:38:09;;;;;;;3.05;2.20;;;4.80;74.40;;;;;;5133867;27;20035;-71
2021/12/11 07:40:40;;;;;;;2.42;2.22;;;4.90;74.40;;;;;;5134935;27;20095;-71
2021/12/11 07:43:07;;;;;;;2.30;2.10;;;4.90;74.30;;;;;;5134271;27;20027;-71
2021/12/11 07:45:33;;;;;;;2.40;2.20;;;4.90;74.10;;;;;;5134673;27;20029;-71
2021/12/11 07:48:00;;;;;;;2.13;1.92;;;4.90;74.20;;;;;;5104003;27;20130;-74
2021/12/11 07:50:27;;;;;;;2.15;1.90;;;4.90;74.20;;;;;;5134622;27;20019;-74
2021/12/11 07:52:53;;;;;;;3.58;2.10;;;4.90;74.30;;;;;;5133863;27;20075;-77
2021/12/11 07:55:19;;;;;;;2.00;1.80;;;4.90;74.30;;;;;;5135145;27;20099;-77
2021/12/11 07:57:46;;;;;;;3.33;2.13;;;4.90;74.20;;;;;;5115855;27;20031;-75
2021/12/11 08:00:16;;;;;;;3.08;2.42;;;4.90;74.20;;;;;;5133914;27;20075;-76
2021/12/11 08:02:42;;;;;;;4.03;2.00;;;5.00;74.30;;;;;;5132380;27;20020;-76
2021/12/11 08:05:09;;;;;;;44.42;21.92;;;5.00;74.00;;;;;;5154020;27;20030;-77
2021/12/11 08:07:35;;;;;;;10.18;6.35;;;5.00;74.10;;;;;;5107176;27;20035;-76
2021/12/11 08:10:00;;;;;;;3.85;3.10;;;5.00;74.20;;;;;;5134876;27;20023;-76
2021/12/11 08:12:26;;;;;;;6.22;3.05;;;5.10;74.20;;;;;;5129326;27;20407;-76
2021/12/11 08:14:52;;;;;;;5.30;3.30;;;5.10;74.10;;;;;;5101908;28;20533;-76
2021/12/11 08:17:19;;;;;;;3.95;2.40;;;5.10;74.10;;;;;;5096231;28;20126;-77
2021/12/11 08:19:45;;;;;;;4.07;3.25;;;5.10;74.00;;;;;;5112763;27;20023;-77
2021/12/11 08:22:12;;;;;;;2.47;2.28;;;5.10;73.90;;;;;;5101125;28;20031;-77
2021/12/11 08:24:39;;;;;;;3.28;2.97;;;5.10;74.10;;;;;;5102301;27;20038;-76
2021/12/11 08:27:13;;;;;;;3.95;3.15;;;5.20;74.20;;;;;;5133736;27;20022;-76
2021/12/11 08:29:40;;;;;;;4.65;2.30;;;5.20;74.30;;;;;;5132502;27;20027;-76
2021/12/11 08:32:07;;;;;;;3.22;2.20;;;5.20;74.00;;;;;;5110616;27;20055;-76
2021/12/11 08:34:33;;;;;;;2.15;1.95;;;5.30;73.80;;;;;;5132882;27;20430;-76
2021/12/11 08:37:00;;;;;;;2.40;2.00;;;5.30;73.80;;;;;;5132136;27;20115;-77
2021/12/11 08:39:26;;;;;;;2.20;2.00;;;5.30;73.70;;;;;;5115372;27;20023;-76
2021/12/11 08:41:53;;;;;;;2.13;1.92;;;5.30;73.70;;;;;;5124430;27;20053;-73
2021/12/11 08:44:20;;;;;;;3.88;3.53;;;5.30;73.70;;;;;;5121287;27;20027;-74
2021/12/11 08:46:53;;;;;;;7.40;5.35;;;5.30;73.70;;;;;;5099459;28;20026;-71
2021/12/11 08:49:23;;;;;;;3.30;3.00;;;5.30;73.80;;;;;;5106009;27;20471;-70
2021/12/11 08:52:05;;;;;;;3.72;2.25;;;5.30;73.80;;;;;;5126837;27;20786;-72
2021/12/11 08:54:32;;;;;;;2.47;2.10;;;5.40;73.70;;;;;;5118502;27;20589;-72
2021/12/11 08:57:00;;;;;;;2.50;2.30;;;5.40;73.60;;;;;;5119386;27;20028;-73
2021/12/11 08:59:30;;;;;;;2.55;2.33;;;5.50;73.50;;;;;;5107610;27;20501;-73
2021/12/11 09:02:07;;;;;;;2.75;2.47;;;5.50;73.50;;;;;;5095495;28;20031;-73
2021/12/11 09:04:43;;;;;;;2.20;2.00;;;5.60;73.60;;;;;;5112529;27;20060;-72
2021/12/11 09:07:32;;;;;;;3.53;2.47;;;5.60;73.40;;;;;;5131269;27;20061;-73
2021/12/11 09:10:09;;;;;;;3.45;2.75;;;5.70;73.10;;;;;;5130674;27;20064;-72
2021/12/11 09:12:48;;;;;;;3.33;2.70;;;5.70;72.90;;;;;;5115004;27;20028;-72
2021/12/11 09:15:44;;;;;;;2.78;2.00;;;5.80;73.10;;;;;;5129410;27;20039;-75
2021/12/11 09:18:18;;;;;;;;;;;5.80;72.40;;;;;;5131839;27;20035;-74
2021/12/11 09:20:57;;;;;;;3.20;1.80;;;5.90;72.40;;;;;;5127389;27;19907;-75
2021/12/11 09:23:31;;;;;;;2.60;2.40;;;5.90;72.40;;;;;;5113363;27;20015;-73
2021/12/11 09:26:05;;;;;;;5.63;3.08;;;5.90;72.00;;;;;;5141615;27;20031;-74
2021/12/11 09:28:37;;;;;;;2.65;2.17;;;6.00;72.90;;;;;;5103162;27;20036;-75
2021/12/11 09:31:22;;;;;;;2.70;2.17;;;6.00;72.20;;;;;;5115273;28;20024;-74
2021/12/11 09:33:53;;;;;;;3.40;2.30;;;6.00;72.00;;;;;;5128539;27;20024;-75
2021/12/11 09:36:25;;;;;;;3.42;2.20;;;6.00;72.10;;;;;;5127297;27;20042;-75
2021/12/11 09:38:58;;;;;;;4.15;2.78;;;6.00;72.00;;;;;;5126341;27;20073;-75
2021/12/11 09:41:27;;;;;;;4.05;2.40;;;6.00;72.10;;;;;;5135148;27;20024;-74
2021/12/11 09:44:15;;;;;;;4.57;2.83;;;5.90;72.20;;;;;;5133664;27;20054;-75
2021/12/11 09:46:55;;;;;;;5.47;3.08;;;5.90;72.10;;;;;;5099885;28;20379;-75
2021/12/11 09:49:25;;;;;;;8.43;3.88;;;6.00;72.10;;;;;;5130000;28;20027;-75
2021/12/11 09:52:01;;;;;;;4.43;2.85;;;6.00;72.10;;;;;;5135824;27;20053;-75
2021/12/11 09:54:28;;;;;;;3.50;3.10;;;6.00;72.10;;;;;;5139440;27;20019;-75
2021/12/11 09:57:01;;;;;;;6.95;3.15;;;6.00;72.20;;;;;;5128729;27;20114;-75
2021/12/11 09:59:31;;;;;;;6.65;4.90;;;6.00;72.10;;;;;;5124112;27;20525;-75
2021/12/11 10:02:01;;;;;;;5.53;3.90;;;6.00;72.10;;;;;;5137163;27;20474;-75
2021/12/11 10:04:47;;;;;;;5.88;3.88;;;6.00;72.10;;;;;;5142888;27;20407;-76
2021/12/11 10:07:30;;;;;;;7.72;5.10;;;6.00;71.90;;;;;;5116571;27;20672;-74
2021/12/11 10:10:06;;;;;;;7.10;5.40;;;6.00;72.00;;;;;;5135160;27;20023;-74
2021/12/11 10:12:35;;;;;;;7.18;5.22;;;6.00;72.10;;;;;;5126199;27;20040;-75
2021/12/11 10:15:13;;;;;;;12.07;6.68;;;5.90;71.70;;;;;;5123613;27;20161;-72
2021/12/11 10:18:09;;;;;;;9.25;5.60;;;5.90;71.80;;;;;;5124945;27;20045;-71
2021/12/11 10:20:56;;;;;;;10.25;6.50;;;5.90;71.80;;;;;;5107836;27;20466;-71
2021/12/11 10:23:27;;;;;;;11.20;6.47;;;5.80;71.70;;;;;;5137061;27;20052;-71
2021/12/11 10:25:56;;;;;;;10.35;5.65;;;5.80;71.90;;;;;;5131062;27;20011;-71
2021/12/11 10:28:24;;;;;;;9.65;6.22;;;5.80;72.00;;;;;;5132458;27;20055;-70
2021/12/11 10:31:15;;;;;;;9.80;6.57;;;5.80;72.00;;;;;;5121691;27;20466;-72
2021/12/11 10:33:41;;;;;;;8.32;5.43;;;5.80;72.00;;;;;;5108906;27;20036;-72
2021/12/11 10:36:13;;;;;;;7.03;5.72;;;5.80;72.30;;;;;;5150078;27;20031;-72
2021/12/11 10:38:40;;;;;;;11.85;7.65;;;5.80;72.30;;;;;;5144085;27;20034;-72
2021/12/11 10:41:10;;;;;;;10.20;6.68;;;5.80;72.40;;;;;;5122631;27;20024;-72
2021/12/11 10:43:42;;;;;;;8.98;6.40;;;5.80;72.40;;;;;;5129605;27;20031;-72
2021/12/11 10:46:11;;;;;;;8.52;5.95;;;5.90;72.30;;;;;;5133943;27;20015;-72
2021/12/11 10:48:37;;;;;;;15.50;6.60;;;5.90;72.20;;;;;;5119539;27;20076;-72
2021/12/11 10:51:08;;;;;;;10.88;7.43;;;5.90;72.00;;;;;;5112636;27;20138;-72
2021/12/11 10:53:35;;;;;;;14.93;8.38;;;5.90;71.90;;;;;;5129263;27;20028;-73
2021/12/11 10:56:04;;;;;;;14.98;7.75;;;5.90;71.90;;;;;;5136399;27;20466;-72
2021/12/11 10:58:36;;;;;;;12.98;7.57;;;5.90;71.90;;;;;;5121922;27;20035;-72
2021/12/11 11:01:11;;;;;;;15.68;8.45;;;5.90;71.90;;;;;;5112129;27;20467;-72
2021/12/11 11:03:40;;;;;;;16.63;7.47;;;5.90;71.90;;;;;;5122412;27;20076;-72
2021/12/11 11:06:07;;;;;;;15.68;7.70;;;5.90;72.00;;;;;;5134167;27;20011;-72
2021/12/11 11:08:33;;;;;;;15.18;7.80;;;5.90;72.00;;;;;;5135530;27;20038;-72
2021/12/11 11:11:07;;;;;;;10.07;6.43;;;6.00;72.00;;;;;;5117186;27;20023;-72
2021/12/11 11:13:33;;;;;;;11.25;7.40;;;5.90;72.00;;;;;;5135900;27;20019;-72
2021/12/11 11:15:59;;;;;;;15.30;8.57;;;6.00;71.90;;;;;;5118668;27;20088;-72
2021/12/11 11:18:27;;;;;;;9.18;7.30;;;6.00;71.80;;;;;;5117255;27;20043;-72
2021/12/11 11:20:55;;;;;;;13.15;6.88;;;6.00;71.70;;;;;;5133712;27;20165;-71
2021/12/11 11:23:21;;;;;;;15.68;7.80;;;6.00;71.70;;;;;;5119732;27;20034;-71
2021/12/11 11:25:52;;;;;;;12.80;7.68;;;6.00;71.70;;;;;;5134689;27;20031;-73
2021/12/11 11:28:21;;;;;;;11.38;7.35;;;6.00;71.70;;;;;;5117823;27;20070;-71
2021/12/11 11:30:57;;;;;;;11.88;7.78;;;6.00;71.60;;;;;;5133172;27;20399;-72
2021/12/11 11:33:23;;;;;;;13.68;8.57;;;6.10;71.70;;;;;;5121649;27;20488;-71
2021/12/11 11:35:50;;;;;;;10.10;7.40;;;6.10;71.60;;;;;;5134725;27;20374;-71
2021/12/11 11:38:24;;;;;;;10.82;7.20;;;6.10;71.60;;;;;;5120267;27;20578;-71
2021/12/11 11:40:53;;;;;;;;;;;6.10;71.40;;;;;;5129760;27;20538;-70
2021/12/11 11:43:20;;;;;;;10.30;6.97;;;6.10;71.40;;;;;;5122028;27;19908;-70
2021/12/11 11:45:52;;;;;;;16.35;10.68;;;6.10;71.40;;;;;;5133922;27;20058;-71
2021/12/11 11:48:21;;;;;;;12.57;8.10;;;6.00;71.10;;;;;;5131908;27;20022;-70
2021/12/11 11:50:48;;;;;;;10.75;7.72;;;6.10;72.00;;;;;;5116424;27;20023;-70
2021/12/11 11:53:16;;;;;;;10.20;7.25;;;6.00;71.30;;;;;;5129252;27;20049;-70
2021/12/11 11:55:46;;;;;;;11.52;7.32;;;6.00;71.40;;;;;;5132085;27;20069;-70
2021/12/11 11:58:12;;;;;;;11.48;8.10;;;6.00;71.60;;;;;;5119640;27;20080;-71
2021/12/11 12:00:45;;;;;;;13.57;7.20;;;6.10;71.60;;;;;;5135928;27;20031;-70
2021/12/11 12:03:15;;;;;;;12.98;7.25;;;6.10;71.40;;;;;;5124661;27;20051;-71
2021/12/11 12:05:42;;;;;;;10.50;7.65;;;6.10;71.50;;;;;;5141102;27;20054;-71
2021/12/11 12:08:11;;;;;;;8.88;6.82;;;6.10;71.40;;;;;;5121851;27;20037;-70
2021/12/11 12:10:38;;;;;;;12.32;7.72;;;6.10;71.20;;;;;;5136611;27;20023;-71
2021/12/11 12:13:07;;;;;;;8.45;6.45;;;6.10;71.30;;;;;;5137780;27;20445;-71
2021/12/11 12:15:38;;;;;;;12.57;7.95;;;6.10;71.40;;;;;;5117402;27;20039;-71
2021/12/11 12:18:05;;;;;;;8.95;6.47;;;6.00;71.30;;;;;;5138945;27;20030;-71
2021/12/11 12:20:31;;;;;;;7.88;6.20;;;6.10;71.60;;;;;;5130420;27;20034;-71
2021/12/11 12:22:57;;;;;;;9.07;6.57;;;6.10;71.60;;;;;;5137227;27;20039;-71
2021/12/11 12:25:25;;;;;;;8.20;6.32;;;6.20;71.70;;;;;;5132301;27;20023;-71
2021/12/11 12:27:51;;;;;;;8.52;6.05;;;6.20;71.70;;;;;;5119503;27;20043;-70
2021/12/11 12:30:33;;;;;;;8.35;6.20;;;6.30;71.70;;;;;;5119136;27;20034;-71
2021/12/11 12:32:59;;;;;;;11.27;7.13;;;6.40;71.50;;;;;;5119127;27;20119;-71
2021/12/11 12:35:28;;;;;;;9.50;5.93;;;6.40;71.50;;;;;;5132472;27;20023;-70
2021/12/11 12:37:55;;;;;;;8.68;6.15;;;6.50;71.00;;;;;;5132491;27;20035;-71
2021/12/11 12:40:28;;;;;;;9.88;6.47;;;6.50;70.80;;;;;;5131059;27;20023;-70
2021/12/11 12:43:04;;;;;;;7.95;6.15;;;6.50;70.50;;;;;;5133755;27;20027;-71
2021/12/11 12:45:36;;;;;;;10.65;6.32;;;6.60;70.60;;;;;;5132454;27;20039;-71
2021/12/11 12:48:14;;;;;;;11.23;6.20;;;6.60;70.40;;;;;;5115610;27;20023;-71
2021/12/11 12:50:53;;;;;;;8.00;6.30;;;6.60;70.10;;;;;;5114636;27;20126;-72
2021/12/11 12:53:21;;;;;;;8.82;6.32;;;6.50;69.90;;;;;;5132773;27;20023;-72
2021/12/11 12:55:55;;;;;;;7.78;6.35;;;6.50;70.20;;;;;;5131879;27;20027;-71
2021/12/11 12:58:28;;;;;;;11.23;6.80;;;6.40;69.90;;;;;;5114802;27;20080;-71
2021/12/11 13:01:02;;;;;;;10.70;7.80;;;6.40;70.10;;;;;;5114727;27;20118;-70
2021/12/11 13:03:32;;;;;;;8.88;6.85;;;6.40;70.10;;;;;;5130030;27;20012;-69
2021/12/11 13:06:12;;;;;;;10.00;7.07;;;6.30;69.60;;;;;;5109347;27;20553;-70
2021/12/11 13:08:55;;;;;;;10.70;7.35;;;6.20;69.60;;;;;;5128509;27;20087;-70
2021/12/11 13:11:31;;;;;;;12.50;7.47;;;6.10;69.30;;;;;;5113013;27;20110;-70
2021/12/11 13:13:59;;;;;;;9.50;6.95;;;6.00;69.50;;;;;;5125347;27;20580;-70
2021/12/11 13:16:30;;;;;;;12.45;7.65;;;5.90;69.50;;;;;;5113531;27;20023;-70
2021/12/11 13:19:18;;;;;;;8.48;6.70;;;5.80;69.70;;;;;;5114169;27;20046;-71
2021/12/11 13:22:19;;;;;;;10.32;7.13;;;5.70;69.90;;;;;;5114925;28;20052;-69
2021/12/11 13:24:52;;;;;;;9.10;7.28;;;5.60;70.10;;;;;;5098273;27;20521;-69
2021/12/11 13:27:21;;;;;;;9.65;7.30;;;5.60;70.30;;;;;;5110740;28;20038;-70